createdAt,value
2022-09-09T00:02:24.957Z,15.53
2022-09-09T00:05:01.116Z,15.40
2022-09-09T00:07:35.988Z,15.29
2022-09-09T00:10:19.128Z,15.18
2022-09-09T00:12:58.234Z,15.07
2022-09-09T00:16:01.052Z,14.92
2022-09-09T00:18:31.674Z,14.77
2022-09-09T00:21:13.572Z,14.64
2022-09-09T00:23:54.933Z,14.55
2022-09-09T00:26:42.676Z,14.49
2022-09-09T00:29:24.359Z,14.38
2022-09-09T00:31:55.387Z,14.22
2022-09-09T00:34:24.677Z,14.13
2022-09-09T00:36:53.894Z,14.02
2022-09-09T00:39:45.876Z,13.92
2022-09-09T00:42:33.933Z,13.76
2022-09-09T00:45:13.205Z,13.59
2022-09-09T00:47:52.919Z,13.46
2022-09-09T00:50:35.479Z,13.33
2022-09-09T00:53:35.060Z,13.24
2022-09-09T00:56:09.402Z,13.18
2022-09-09T00:58:37.931Z,13.14
2022-09-09T01:01:14.297Z,13.13
2022-09-09T01:03:54.505Z,13.14
2022-09-09T01:06:35.479Z,13.17
2022-09-09T01:09:11.681Z,13.19
2022-09-09T01:11:53.410Z,13.28
2022-09-09T01:14:20.700Z,13.29
2022-09-09T01:16:49.855Z,13.33
2022-09-09T01:19:25.249Z,13.38
2022-09-09T01:22:08.273Z,13.39
2022-09-09T01:24:54.325Z,13.37
2022-09-09T01:27:22.604Z,13.32
2022-09-09T01:29:49.893Z,13.27
2022-09-09T01:32:41.355Z,13.20
2022-09-09T01:35:13.525Z,13.30
2022-09-09T01:37:41.084Z,13.27
2022-09-09T01:40:08.797Z,13.24
2022-09-09T01:42:36.178Z,13.25
2022-09-09T01:45:04.072Z,13.32
2022-09-09T01:47:31.420Z,13.34
2022-09-09T01:49:59.644Z,13.33
2022-09-09T01:52:27.124Z,13.25
2022-09-09T01:54:54.567Z,13.16
2022-09-09T01:57:38.416Z,13.11
2022-09-09T02:00:14.590Z,13.08
2022-09-09T02:02:54.242Z,13.10
2022-09-09T02:05:42.813Z,13.10
2022-09-09T02:08:43.647Z,13.11
2022-09-09T02:11:21.649Z,13.12
2022-09-09T02:13:51.165Z,13.13
2022-09-09T02:16:24.632Z,13.14
2022-09-09T02:19:10.014Z,13.07
2022-09-09T02:21:37.668Z,13.04
2022-09-09T02:24:11.401Z,12.98
2022-09-09T02:26:41.698Z,12.97
2022-09-09T02:29:19.168Z,12.92
2022-09-09T02:31:47.859Z,12.83
2022-09-09T02:34:16.047Z,12.77
2022-09-09T02:36:44.542Z,12.72
2022-09-09T02:39:11.976Z,12.70
2022-09-09T02:41:41.904Z,12.67
2022-09-09T02:44:20.310Z,12.81
2022-09-09T02:47:02.746Z,12.76
2022-09-09T02:49:39.285Z,12.66
2022-09-09T02:52:19.787Z,12.59
2022-09-09T02:54:47.239Z,12.59
2022-09-09T02:57:20.974Z,12.51
2022-09-09T02:59:49.191Z,12.41
2022-09-09T03:02:16.730Z,12.39
2022-09-09T03:04:51.824Z,12.32
2022-09-09T03:07:20.339Z,12.24
2022-09-09T03:09:50.211Z,12.22
2022-09-09T03:12:17.609Z,12.18
2022-09-09T03:14:46.482Z,12.13
2022-09-09T03:17:14.677Z,12.03
2022-09-09T03:19:42.058Z,12.07
2022-09-09T03:22:11.219Z,11.92
2022-09-09T03:24:39.010Z,11.85
2022-09-09T03:27:06.347Z,11.84
2022-09-09T03:29:34.049Z,11.87
2022-09-09T03:32:02.253Z,11.90
2022-09-09T03:34:29.722Z,11.94
2022-09-09T03:36:57.104Z,11.94
2022-09-09T03:39:24.472Z,11.93
2022-09-09T03:41:51.995Z,11.95
2022-09-09T03:44:19.269Z,11.98
2022-09-09T03:46:46.879Z,11.98
2022-09-09T03:49:14.313Z,12.02
2022-09-09T03:51:42.137Z,12.08
2022-09-09T03:54:11.247Z,12.15
2022-09-09T03:56:42.554Z,12.21
2022-09-09T03:59:09.846Z,12.30
2022-09-09T04:01:37.144Z,12.38
2022-09-09T04:04:04.662Z,12.48
2022-09-09T04:06:32.262Z,12.57
2022-09-09T04:08:59.829Z,12.68
2022-09-09T04:11:27.593Z,12.83
2022-09-09T04:13:54.941Z,13.02
2022-09-09T04:16:22.466Z,13.16
2022-09-09T04:18:50.741Z,13.72
2022-09-09T04:21:18.570Z,14.02
2022-09-09T04:23:45.963Z,14.12
2022-09-09T04:26:13.293Z,14.08
2022-09-09T04:28:40.687Z,14.03
2022-09-09T04:31:12.519Z,14.01
2022-09-09T04:33:40.713Z,14.05
2022-09-09T04:36:08.578Z,14.27
2022-09-09T04:38:37.625Z,14.95
2022-09-09T04:44:28.325Z,15.65
2022-09-09T04:46:55.672Z,15.82
2022-09-09T04:49:29.886Z,16.58
2022-09-09T04:52:04.554Z,17.89
2022-09-09T04:54:32.117Z,19.28
2022-09-09T04:56:59.820Z,20.78
2022-09-09T04:59:27.255Z,21.92
2022-09-09T05:01:59.688Z,22.97
2022-09-09T05:04:27.033Z,23.77
2022-09-09T05:06:54.901Z,24.08
2022-09-09T05:09:22.339Z,23.68
2022-09-09T05:11:52.438Z,22.91
2022-09-09T05:14:23.768Z,23.20
2022-09-09T05:16:54.824Z,23.92
2022-09-09T05:19:23.084Z,24.42
2022-09-09T05:21:51.336Z,24.12
2022-09-09T05:24:26.477Z,23.94
2022-09-09T05:26:56.339Z,23.16
2022-09-09T05:29:26.166Z,23.24
2022-09-09T05:31:53.845Z,24.03
2022-09-09T05:34:21.893Z,24.40
2022-09-09T05:36:53.236Z,24.79
2022-09-09T05:39:20.846Z,24.87
2022-09-09T05:42:02.173Z,24.73
2022-09-09T05:44:34.195Z,24.30
2022-09-09T05:47:01.716Z,24.36
2022-09-09T05:49:29.986Z,24.72
2022-09-09T05:51:59.377Z,25.12
2022-09-09T05:54:26.764Z,25.07
2022-09-09T05:56:54.839Z,24.98
2022-09-09T05:59:27.534Z,24.55
2022-09-09T06:02:01.381Z,24.54
2022-09-09T06:04:33.113Z,24.44
2022-09-09T06:07:10.073Z,24.19
2022-09-09T06:09:42.446Z,23.85
2022-09-09T06:12:11.428Z,22.97
2022-09-09T06:14:44.403Z,22.27
2022-09-09T06:17:21.345Z,21.53
2022-09-09T06:20:02.057Z,20.86
2022-09-09T06:22:30.111Z,20.29
2022-09-09T06:25:02.229Z,19.86
2022-09-09T06:27:30.481Z,19.42
2022-09-09T06:30:07.519Z,19.10
2022-09-09T06:32:38.559Z,18.97
2022-09-09T06:35:12.051Z,18.74
2022-09-09T06:44:54.592Z,18.61
2022-09-09T06:47:29.028Z,18.56
2022-09-09T06:50:01.247Z,18.64
2022-09-09T06:52:29.532Z,18.57
2022-09-09T06:55:04.022Z,18.59
2022-09-09T06:57:38.474Z,18.49
2022-09-09T07:00:17.974Z,18.52
2022-09-09T07:02:45.940Z,18.40
2022-09-09T07:05:13.869Z,18.47
2022-09-09T07:07:41.458Z,18.58
2022-09-09T07:10:09.662Z,18.55
2022-09-09T07:12:38.075Z,18.59
2022-09-09T07:15:06.597Z,18.68
2022-09-09T07:17:37.793Z,18.79
2022-09-09T07:20:08.835Z,18.96
2022-09-09T07:22:39.954Z,19.10
2022-09-09T07:25:09.057Z,19.12
2022-09-09T07:27:39.634Z,19.05
2022-09-09T07:30:08.653Z,19.08
2022-09-09T07:32:41.993Z,19.05
2022-09-09T07:35:15.213Z,19.07
2022-09-09T07:37:50.701Z,19.11
2022-09-09T07:40:23.576Z,19.00
2022-09-09T07:42:51.385Z,18.97
2022-09-09T07:45:19.083Z,18.97
2022-09-09T07:47:49.577Z,18.96
2022-09-09T07:50:25.737Z,19.01
2022-09-09T07:53:14.187Z,19.02
2022-09-09T07:55:51.891Z,19.03
2022-09-09T08:01:46.440Z,19.18
2022-09-09T08:04:18.016Z,19.20
2022-09-09T08:07:25.962Z,19.25
2022-09-09T08:09:56.857Z,19.31
2022-09-09T08:12:24.520Z,19.37
2022-09-09T08:14:55.510Z,19.37
2022-09-09T08:17:23.878Z,19.43
2022-09-09T08:20:00.409Z,19.50
2022-09-09T08:23:30.765Z,19.51
2022-09-09T08:26:38.324Z,19.63
2022-09-09T08:29:09.332Z,19.65
2022-09-09T08:31:40.852Z,19.62
2022-09-09T08:34:10.743Z,19.62
2022-09-09T08:36:43.498Z,19.63
2022-09-09T08:39:13.457Z,19.66
2022-09-09T08:42:19.085Z,19.73
2022-09-09T08:45:04.122Z,19.84
2022-09-09T08:47:49.186Z,19.88
2022-09-09T08:51:03.080Z,19.93
2022-09-09T08:53:39.934Z,19.96
2022-09-09T08:56:14.790Z,20.00
2022-09-09T08:58:50.161Z,20.03
2022-09-09T09:01:57.137Z,20.02
2022-09-09T09:05:00.353Z,20.01
2022-09-09T09:07:35.711Z,19.94
2022-09-09T09:10:18.963Z,19.94
2022-09-09T09:12:57.273Z,19.90
2022-09-09T09:15:29.462Z,20.01
2022-09-09T09:18:00.807Z,20.01
2022-09-09T09:20:44.255Z,20.03
2022-09-09T09:23:20.801Z,20.11
2022-09-09T09:25:48.674Z,20.16
2022-09-09T09:28:24.717Z,20.15
2022-09-09T09:31:02.765Z,20.26
2022-09-09T09:33:38.559Z,20.33
2022-09-09T09:36:09.561Z,20.37
2022-09-09T09:41:35.728Z,20.35
2022-09-09T09:44:04.420Z,20.34
2022-09-09T09:46:32.531Z,20.46
2022-09-09T09:49:01.710Z,20.57
2022-09-09T09:51:31.140Z,20.70
2022-09-09T09:54:10.925Z,20.81
2022-09-09T09:56:38.814Z,20.86
2022-09-09T09:59:13.320Z,20.79
2022-09-09T10:01:52.024Z,20.81
2022-09-09T10:04:24.737Z,20.88
2022-09-09T10:06:53.086Z,20.95
2022-09-09T10:09:24.084Z,21.05
2022-09-09T10:12:20.138Z,21.10
2022-09-09T10:14:58.183Z,21.03
2022-09-09T10:17:42.582Z,21.00
2022-09-09T10:20:25.091Z,21.07
2022-09-09T10:22:53.820Z,21.11
2022-09-09T10:25:38.309Z,21.13
2022-09-09T10:28:27.564Z,21.15
2022-09-09T10:31:18.493Z,21.14
2022-09-09T10:34:08.177Z,21.16
2022-09-09T10:36:44.264Z,21.25
2022-09-09T10:39:43.107Z,21.35
2022-09-09T10:42:17.316Z,21.39
2022-09-09T10:45:13.306Z,21.42
2022-09-09T10:47:59.222Z,21.48
2022-09-09T10:51:00.015Z,21.57
2022-09-09T10:53:39.486Z,21.56
2022-09-09T10:56:14.887Z,21.52
2022-09-09T10:58:47.688Z,21.49
2022-09-09T11:01:26.998Z,21.47
2022-09-09T11:04:00.296Z,21.52
2022-09-09T11:06:34.241Z,21.62
2022-09-09T11:09:03.774Z,21.74
2022-09-09T11:11:42.635Z,21.77
2022-09-09T11:14:39.386Z,21.77
2022-09-09T11:17:12.226Z,21.75
2022-09-09T11:19:44.751Z,21.74
2022-09-09T11:22:39.781Z,21.87
2022-09-09T11:25:25.807Z,22.08
2022-09-09T11:28:40.397Z,22.20
2022-09-09T11:31:43.462Z,22.24
2022-09-09T11:34:20.080Z,22.17
2022-09-09T11:37:00.321Z,22.22
2022-09-09T11:39:49.926Z,22.30
2022-09-09T11:42:23.576Z,22.44
2022-09-09T11:44:52.144Z,22.49
2022-09-09T11:47:31.465Z,22.48
2022-09-09T11:50:32.247Z,22.40
2022-09-09T11:53:15.065Z,22.44
2022-09-09T11:55:42.837Z,22.38
2022-09-09T11:58:10.458Z,22.29
2022-09-09T12:00:44.473Z,22.15
2022-09-09T12:03:35.541Z,22.14
2022-09-09T12:06:32.330Z,21.93
2022-09-09T12:09:26.395Z,21.82
2022-09-09T12:12:14.045Z,21.73
2022-09-09T12:15:02.451Z,21.67
2022-09-09T12:17:31.932Z,21.65
2022-09-09T12:20:25.494Z,21.67
2022-09-09T12:23:06.081Z,21.82
2022-09-09T12:26:09.171Z,22.01
2022-09-09T12:29:13.395Z,22.25
2022-09-09T12:32:15.443Z,22.42
2022-09-09T12:34:51.301Z,22.57
2022-09-09T12:37:20.370Z,22.63
2022-09-09T12:39:56.820Z,22.59
2022-09-09T12:42:29.368Z,22.49
2022-09-09T12:45:07.421Z,22.44
2022-09-09T12:47:52.401Z,22.42
2022-09-09T12:50:29.352Z,22.39
2022-09-09T12:53:03.675Z,22.46
2022-09-09T12:55:37.370Z,22.38
2022-09-09T12:58:07.041Z,22.31
2022-09-09T13:00:35.468Z,22.25
2022-09-09T13:03:20.025Z,22.22
2022-09-09T13:05:48.507Z,22.20
2022-09-09T13:08:30.330Z,22.15
2022-09-09T13:11:04.373Z,22.11
2022-09-09T13:13:36.685Z,22.11
2022-09-09T13:16:08.370Z,22.12
2022-09-09T13:18:43.281Z,22.16
2022-09-09T13:21:11.742Z,22.09
2022-09-09T13:23:41.053Z,22.02
2022-09-09T13:26:27.759Z,21.96
2022-09-09T13:28:56.996Z,21.91
2022-09-09T13:31:31.570Z,21.88
2022-09-09T13:33:59.401Z,21.87
2022-09-09T13:36:43.663Z,21.86
2022-09-09T13:39:34.725Z,21.86
2022-09-09T13:42:06.326Z,21.91
2022-09-09T13:44:39.075Z,21.92
2022-09-09T13:47:15.749Z,21.95
2022-09-09T13:49:43.471Z,22.00
2022-09-09T13:52:15.617Z,21.98
2022-09-09T13:54:51.134Z,22.03
2022-09-09T13:57:28.628Z,22.10
2022-09-09T14:00:05.380Z,22.10
2022-09-09T14:02:34.938Z,22.06
2022-09-09T14:05:02.831Z,22.01
2022-09-09T14:07:33.200Z,21.97
2022-09-09T14:10:01.460Z,21.96
2022-09-09T14:12:29.425Z,21.90
2022-09-09T14:14:59.691Z,21.88
2022-09-09T14:17:31.489Z,21.83
2022-09-09T14:20:01.137Z,21.85
2022-09-09T14:22:32.767Z,21.90
2022-09-09T14:25:04.390Z,21.89
2022-09-09T14:27:35.904Z,21.86
2022-09-09T14:30:11.152Z,21.88
2022-09-09T14:32:48.859Z,21.87
2022-09-09T14:35:18.478Z,21.83
2022-09-09T14:37:45.908Z,21.83
2022-09-09T14:40:13.640Z,21.73
2022-09-09T14:42:42.291Z,21.58
2022-09-09T14:45:11.775Z,21.33
2022-09-09T14:47:40.089Z,21.24
2022-09-09T14:50:09.683Z,21.12
2022-09-09T14:52:37.992Z,20.99
2022-09-09T14:55:06.221Z,20.89
2022-09-09T14:57:36.292Z,20.82
2022-09-09T15:00:07.525Z,20.73
2022-09-09T15:02:35.559Z,20.66
2022-09-09T15:05:10.192Z,20.62
2022-09-09T15:07:39.467Z,20.55
2022-09-09T15:10:12.264Z,20.44
2022-09-09T15:12:39.927Z,20.39
2022-09-09T15:15:08.430Z,20.29
2022-09-09T15:17:37.167Z,20.21
2022-09-09T15:20:06.821Z,20.11
2022-09-09T15:22:37.367Z,19.99
2022-09-09T15:25:06.957Z,19.92
2022-09-09T15:27:35.972Z,19.86
2022-09-09T15:30:04.285Z,19.79
2022-09-09T15:32:42.468Z,19.73
2022-09-09T15:35:10.855Z,19.71
2022-09-09T15:37:46.197Z,19.61
2022-09-09T15:40:16.849Z,19.58
2022-09-09T15:42:47.509Z,19.53
2022-09-09T15:45:17.212Z,19.50
2022-09-09T15:47:44.655Z,19.44
2022-09-09T15:50:12.758Z,19.37
2022-09-09T15:52:43.273Z,19.35
2022-09-09T15:55:13.244Z,19.29
2022-09-09T15:57:48.220Z,19.25
2022-09-09T16:00:17.779Z,19.20
2022-09-09T16:02:45.447Z,19.17
2022-09-09T16:05:16.422Z,19.14
2022-09-09T16:07:46.144Z,19.09
2022-09-09T16:10:16.266Z,19.06
2022-09-09T16:12:44.761Z,19.03
2022-09-09T16:15:14.159Z,18.96
2022-09-09T16:17:41.723Z,18.92
2022-09-09T16:20:21.688Z,18.87
2022-09-09T16:23:04.372Z,18.78
2022-09-09T16:25:34.715Z,18.76
2022-09-09T16:28:06.494Z,18.71
2022-09-09T16:30:34.098Z,18.65
2022-09-09T16:33:01.785Z,18.63
2022-09-09T16:35:31.058Z,18.61
2022-09-09T16:38:02.379Z,18.54
2022-09-09T16:40:30.509Z,18.50
2022-09-09T16:43:07.364Z,18.45
2022-09-09T16:45:35.337Z,18.38
2022-09-09T16:48:03.496Z,18.33
2022-09-09T16:50:36.972Z,18.30
2022-09-09T16:53:07.739Z,18.25
2022-09-09T16:55:47.515Z,18.17
2022-09-09T16:58:18.681Z,18.11
2022-09-09T17:00:53.211Z,18.06
2022-09-09T17:03:25.560Z,18.01
2022-09-09T17:06:04.377Z,17.93
2022-09-09T17:08:34.807Z,17.91
2022-09-09T17:11:02.513Z,17.86
2022-09-09T17:13:31.593Z,17.84
2022-09-09T17:16:06.865Z,17.81
2022-09-09T17:18:39.440Z,17.75
2022-09-09T17:21:15.013Z,17.68
2022-09-09T17:23:44.266Z,17.62
2022-09-09T17:26:19.707Z,17.58
2022-09-09T17:28:48.800Z,17.55
2022-09-09T17:31:20.681Z,17.49
2022-09-09T17:34:00.874Z,17.41
2022-09-09T17:36:40.668Z,17.36
2022-09-09T17:39:10.668Z,17.29
2022-09-09T17:41:50.169Z,17.24
2022-09-09T17:44:20.461Z,17.17
2022-09-09T17:46:52.101Z,17.11
2022-09-09T17:49:24.367Z,17.08
2022-09-09T17:52:47.872Z,17.00
2022-09-09T17:55:42.178Z,16.89
2022-09-09T17:58:13.322Z,16.91
2022-09-09T18:00:44.932Z,16.87
2022-09-09T18:03:12.737Z,16.80
2022-09-09T18:05:42.604Z,16.77
2022-09-09T18:08:13.597Z,16.73
2022-09-09T18:10:41.209Z,16.71
2022-09-09T18:13:22.874Z,16.66
2022-09-09T18:15:50.837Z,16.63
2022-09-09T18:18:21.861Z,16.57
2022-09-09T18:21:09.887Z,16.54
2022-09-09T18:23:39.972Z,16.51
2022-09-09T18:26:15.645Z,16.47
2022-09-09T18:28:52.197Z,16.46
2022-09-09T18:31:27.306Z,16.44
2022-09-09T18:33:58.602Z,16.36
2022-09-09T18:36:35.065Z,16.36
2022-09-09T18:39:06.318Z,16.28
2022-09-09T18:41:39.396Z,16.25
2022-09-09T18:44:16.753Z,16.17
2022-09-09T18:46:45.010Z,16.18
2022-09-09T18:49:13.277Z,16.16
2022-09-09T18:51:43.219Z,16.12
2022-09-09T18:54:14.545Z,16.11
2022-09-09T18:56:43.941Z,16.09
2022-09-09T18:59:14.222Z,16.06
2022-09-09T19:01:42.489Z,16.05
2022-09-09T19:04:10.440Z,16.00
2022-09-09T19:06:44.448Z,15.96
2022-09-09T19:09:17.133Z,15.96
2022-09-09T19:11:47.112Z,15.92
2022-09-09T19:14:17.089Z,15.89
2022-09-09T19:16:48.641Z,15.90
2022-09-09T19:19:19.822Z,15.85
2022-09-09T19:21:52.511Z,15.82
2022-09-09T19:24:23.132Z,15.77
2022-09-09T19:26:52.832Z,15.77
2022-09-09T19:29:29.016Z,15.71
2022-09-09T19:34:47.679Z,15.65
2022-09-09T19:37:19.324Z,15.62
2022-09-09T19:39:51.985Z,15.56
2022-09-09T19:42:21.467Z,15.50
2022-09-09T19:44:53.868Z,15.49
2022-09-09T19:47:30.131Z,15.44
2022-09-09T19:50:01.039Z,15.37
2022-09-09T19:52:37.590Z,15.35
2022-09-09T19:55:06.196Z,15.27
2022-09-09T19:57:37.067Z,15.24
2022-09-09T20:00:09.249Z,15.21
2022-09-09T20:02:40.600Z,15.15
2022-09-09T20:05:08.981Z,15.17
2022-09-09T20:07:37.168Z,15.14
2022-09-09T20:10:05.391Z,15.12
2022-09-09T20:12:36.402Z,15.09
2022-09-09T20:15:04.297Z,15.10
2022-09-09T20:17:36.820Z,15.05
2022-09-09T20:20:12.644Z,15.05
2022-09-09T20:22:44.738Z,15.05
2022-09-09T20:25:15.668Z,15.06
2022-09-09T20:30:28.285Z,15.04
2022-09-09T20:33:28.020Z,15.02
2022-09-09T20:35:59.553Z,15.01
2022-09-09T20:38:28.725Z,15.02
2022-09-09T20:40:57.101Z,14.97
2022-09-09T20:43:25.484Z,15.00
2022-09-09T20:45:59.107Z,14.98
2022-09-09T20:48:27.567Z,14.97
2022-09-09T20:50:55.983Z,14.97
2022-09-09T20:53:23.736Z,14.96
2022-09-09T20:55:51.382Z,14.96
2022-09-09T20:58:19.113Z,14.94
2022-09-09T21:00:46.760Z,14.93
2022-09-09T21:03:15.090Z,14.92
2022-09-09T21:05:44.503Z,14.93
2022-09-09T21:08:20.184Z,14.87
2022-09-09T21:10:52.204Z,14.89
2022-09-09T21:13:22.331Z,14.91
2022-09-09T21:15:52.757Z,14.89
2022-09-09T21:18:30.601Z,14.85
2022-09-09T21:20:58.959Z,14.85
2022-09-09T21:23:28.126Z,14.83
2022-09-09T21:25:58.275Z,14.83
2022-09-09T21:28:25.892Z,14.88
2022-09-09T21:30:55.898Z,14.88
2022-09-09T21:33:25.421Z,14.86
2022-09-09T21:35:52.801Z,14.82
2022-09-09T21:38:22.498Z,14.81
2022-09-09T21:40:50.294Z,14.80
2022-09-09T21:43:20.494Z,14.81
2022-09-09T21:45:51.041Z,14.80
2022-09-09T21:48:19.312Z,14.79
2022-09-09T21:50:49.012Z,14.77
2022-09-09T21:53:19.205Z,14.73
2022-09-09T21:55:50.321Z,14.76
2022-09-09T21:58:20.926Z,14.73
2022-09-09T22:00:48.459Z,14.76
2022-09-09T22:03:17.773Z,14.76
2022-09-09T22:05:48.789Z,14.71
2022-09-09T22:08:20.188Z,14.68
2022-09-09T22:11:12.444Z,14.64
2022-09-09T22:13:43.115Z,14.62
2022-09-09T22:16:13.523Z,14.60
2022-09-09T22:18:42.317Z,14.59
2022-09-09T22:21:16.031Z,14.55
2022-09-09T22:23:47.703Z,14.54
2022-09-09T22:26:18.344Z,14.51
2022-09-09T22:28:47.842Z,14.48
2022-09-09T22:31:15.571Z,14.45
2022-09-09T22:33:43.015Z,14.44
2022-09-09T22:36:10.702Z,14.41
2022-09-09T22:38:39.452Z,14.38
2022-09-09T22:41:07.768Z,14.36
2022-09-09T22:43:40.105Z,14.35
2022-09-09T22:46:07.887Z,14.32
2022-09-09T22:48:36.699Z,14.32
2022-09-09T22:51:06.818Z,14.30
2022-09-09T22:53:37.385Z,14.29
2022-09-09T22:56:07.771Z,14.30
2022-09-09T22:58:36.850Z,14.28
2022-09-09T23:01:12.305Z,14.23
2022-09-09T23:03:42.311Z,14.20
2022-09-09T23:06:11.741Z,14.17
2022-09-09T23:08:43.907Z,14.16
2022-09-09T23:11:12.450Z,14.14
2022-09-09T23:13:43.187Z,14.12
2022-09-09T23:16:12.882Z,14.10
2022-09-09T23:18:41.222Z,14.10
2022-09-09T23:21:11.486Z,14.04
2022-09-09T23:23:39.422Z,13.97
2022-09-09T23:26:11.241Z,13.88
2022-09-09T23:28:44.858Z,13.78
2022-09-09T23:31:14.006Z,13.66
2022-09-09T23:33:43.457Z,13.58
2022-09-09T23:36:16.030Z,13.53
2022-09-09T23:38:44.590Z,13.51
2022-09-09T23:41:14.960Z,13.48
2022-09-09T23:43:52.033Z,13.48
2022-09-09T23:46:22.704Z,13.48
2022-09-09T23:48:51.973Z,13.45
2022-09-09T23:51:23.758Z,13.40
2022-09-09T23:53:53.724Z,13.31
2022-09-09T23:56:23.269Z,13.15
2022-09-09T23:58:51.535Z,13.01
